2MD3 weather

Fly Away Farm Airport
Boyds, Maryland, United States

Public forecast

Using degrees Fahrenheit for public forecast. Weather courtesy of forecast.io.

METAR (pilot weather report)

Closest report is Montgomery County Airpark, 9.1 nm (16.9 km) ESE. Retrieved 2019/05/21 03:56 UTC (5 minutes ago):

KGAI 210356Z AUTO 31006KT 10SM CLR 21/12 A2991 RMK AO2 SLP146 T02110117

TAF (pilot weather forecast)

Forecast is more than 12 hours old.

Closest forecast is Washington Dulles International Airport, 17.8 nm (33.0 km) SSW. Retrieved 2019/05/20 00:39 UTC (1 day ago):

TAF KIAD 202336Z 2100/2206 30008KT P6SM SKC FM211200 33013G18KT P6SM FEW150 FM211600 33010KT P6SM FEW150 FM220300 35005KT P6SM FEW110